Time;durP1;ratioP1;P1;durP2;ratioP2;P2;SDS_P1;SDS_P2;PMS_P1;PMS_P2;Temp;Humidity;BMP_temperature;BMP_pressure;BME280_temperature;BME280_humidity;BME280_pressure;Samples;Min_cycle;Max_cycle;Signal;HPM_P1;HPM_P2
2022/01/06 00:02:10;;;;;;;4.73;3.20;;;5.40;51.00;;;;;;20499;6852;307880;-87
2022/01/06 00:04:36;;;;;;;5.43;2.70;;;5.50;51.10;;;;;;20788;6852;116519;-87
2022/01/06 00:07:01;;;;;;;5.10;2.90;;;5.50;51.10;;;;;;20798;6852;118727;-87
2022/01/06 00:09:27;;;;;;;6.82;3.08;;;5.20;51.40;;;;;;20573;6852;290319;-87
2022/01/06 00:11:52;;;;;;;6.00;3.65;;;5.30;51.70;;;;;;20738;6852;117815;-87
2022/01/06 00:14:37;;;;;;;5.97;3.00;;;5.30;51.60;;;;;;20710;6852;117682;-88
2022/01/06 00:24:45;;;;;;;3.17;2.43;;;5.10;52.30;;;;;;19623;7210;119799;-88
2022/01/06 00:27:10;;;;;;;3.37;2.33;;;4.90;52.70;;;;;;20171;6851;119150;-88
2022/01/06 00:29:36;;;;;;;5.57;2.83;;;4.80;53.00;;;;;;20478;6851;308655;-88
2022/01/06 00:32:02;;;;;;;5.43;2.80;;;4.90;53.30;;;;;;20489;6851;308485;-88
2022/01/06 00:34:27;;;;;;;4.40;2.70;;;5.30;52.70;;;;;;20487;6851;340973;-88
2022/01/06 00:36:53;;;;;;;4.97;2.77;;;5.60;52.30;;;;;;20708;6851;117089;-88
2022/01/06 00:39:18;;;;;;;3.00;2.33;;;5.50;52.10;;;;;;20706;6851;117352;-88
2022/01/06 00:41:48;;;;;;;5.73;2.77;;;5.30;52.60;;;;;;20485;6851;282309;-88
2022/01/06 00:44:14;;;;;;;4.67;2.80;;;5.40;52.90;;;;;;20491;6852;283942;-88
2022/01/06 00:46:38;;;;;;;7.07;2.60;;;5.60;52.30;;;;;;20684;6852;117552;-87
2022/01/06 00:49:04;;;;;;;6.78;2.80;;;5.60;52.60;;;;;;20487;6852;341274;-89
2022/01/06 00:51:30;;;;;;;5.67;2.60;;;5.60;52.30;;;;;;20691;6852;117332;-87
2022/01/06 00:53:56;;;;;;;8.02;2.67;;;5.50;52.30;;;;;;20685;6852;121445;-87
2022/01/06 00:56:21;;;;;;;4.45;2.62;;;5.20;52.80;;;;;;20485;6852;295294;-87
2022/01/06 00:58:48;;;;;;;5.77;2.60;;;5.30;52.90;;;;;;20484;6852;338438;-87
2022/01/06 01:01:12;;;;;;;6.57;3.10;;;5.50;52.90;;;;;;20491;6852;343082;-87
2022/01/06 01:03:38;;;;;;;3.33;2.20;;;5.80;51.80;;;;;;20690;6852;118426;-87
2022/01/06 01:06:03;;;;;;;3.83;2.70;;;5.70;51.90;;;;;;20492;6852;325875;-88
2022/01/06 01:08:32;;;;;;;5.43;2.60;;;5.70;52.00;;;;;;20499;6852;282974;-88
2022/01/06 01:10:54;;;;;;;4.37;2.70;;;5.90;51.60;;;;;;20489;6852;278561;-87
2022/01/06 01:13:28;;;;;;;5.37;2.40;;;6.10;51.20;;;;;;20702;6852;117197;-87
2022/01/06 01:15:52;;;;;;;2.10;1.90;;;5.60;51.90;;;;;;20662;6852;117296;-87
2022/01/06 01:18:17;;;;;;;3.77;2.50;;;5.60;51.90;;;;;;20728;6852;120758;-86
2022/01/06 01:20:39;;;;;;;4.37;2.62;;;5.30;52.50;;;;;;20471;6852;278493;-87
2022/01/06 01:23:04;;;;;;;3.83;2.10;;;5.40;52.40;;;;;;20681;6852;117146;-87
2022/01/06 01:25:30;;;;;;;3.03;2.00;;;5.30;52.40;;;;;;20751;6852;117605;-86
2022/01/06 01:27:57;;;;;;;3.57;2.60;;;5.10;52.70;;;;;;20732;6852;120463;-87
2022/01/06 01:30:28;;;;;;;5.30;2.17;;;5.00;53.30;;;;;;20725;6852;117175;-87
2022/01/06 01:32:51;;;;;;;3.57;2.13;;;4.80;53.60;;;;;;20719;6852;118489;-87
2022/01/06 01:35:12;;;;;;;4.60;2.07;;;4.70;53.90;;;;;;20678;6850;118364;-88
2022/01/06 01:37:39;;;;;;;5.80;2.62;;;4.60;54.20;;;;;;20458;6851;312808;-88
2022/01/06 01:40:05;;;;;;;2.50;1.90;;;4.80;53.70;;;;;;20694;6851;119454;-87
2022/01/06 01:42:30;;;;;;;4.77;2.07;;;4.90;53.60;;;;;;20688;6851;120155;-88
2022/01/06 01:44:56;;;;;;;4.47;2.63;;;4.80;53.80;;;;;;20479;6851;313451;-88
2022/01/06 01:47:37;;;;;;;4.43;2.53;;;4.90;53.40;;;;;;20696;6851;117502;-88
2022/01/06 01:50:12;;;;;;;4.77;2.20;;;5.00;53.30;;;;;;20629;6861;120818;-88
2022/01/06 01:52:24;;;;;;;6.57;2.45;;;4.80;53.50;;;;;;20414;6862;309104;-87
2022/01/06 01:54:49;;;;;;;4.80;2.67;;;5.00;53.20;;;;;;20464;6862;309326;-88
2022/01/06 01:57:15;;;;;;;3.97;2.20;;;5.40;52.50;;;;;;20679;6862;117762;-88
2022/01/06 01:59:41;;;;;;;3.93;1.80;;;5.30;52.40;;;;;;20652;6862;117623;-88
2022/01/06 02:02:06;;;;;;;4.72;2.37;;;5.20;52.80;;;;;;20451;6861;338868;-87
2022/01/06 02:04:33;;;;;;;3.20;2.40;;;5.30;52.80;;;;;;20675;6861;117240;-87
2022/01/06 02:06:57;;;;;;;3.40;2.40;;;5.20;52.60;;;;;;20443;6861;343081;-88
2022/01/06 02:09:23;;;;;;;5.35;2.45;;;5.30;52.50;;;;;;20671;6861;117248;-87
2022/01/06 02:11:48;;;;;;;4.03;2.42;;;5.30;52.50;;;;;;20432;6861;308701;-88
2022/01/06 02:14:14;;;;;;;4.50;2.50;;;5.40;52.40;;;;;;20452;6862;309828;-87
2022/01/06 02:16:40;;;;;;;4.22;2.40;;;5.70;51.80;;;;;;20459;6862;278779;-87
2022/01/06 02:19:05;;;;;;;4.93;2.62;;;5.90;51.30;;;;;;20455;6862;308624;-88
2022/01/06 02:21:31;;;;;;;4.03;2.47;;;6.10;50.70;;;;;;20459;6862;279265;-88
2022/01/06 02:23:56;;;;;;;3.72;2.53;;;6.20;50.30;;;;;;20463;6862;281449;-88
2022/01/06 02:26:22;;;;;;;4.30;2.40;;;6.30;50.10;;;;;;20671;6862;120130;-87
2022/01/06 02:28:47;;;;;;;3.45;2.50;;;6.10;50.50;;;;;;20668;6862;121543;-87
2022/01/06 02:31:13;;;;;;;4.70;2.37;;;5.80;51.30;;;;;;20672;6862;117242;-89
2022/01/06 02:33:39;;;;;;;6.80;2.45;;;5.50;52.00;;;;;;20651;6862;118918;-87
2022/01/06 02:36:04;;;;;;;5.53;2.70;;;5.30;52.60;;;;;;20459;6862;312537;-88
2022/01/06 02:38:30;;;;;;;3.53;2.17;;;5.40;52.80;;;;;;20663;6862;118370;-88
2022/01/06 02:40:55;;;;;;;5.15;2.58;;;5.40;52.80;;;;;;20462;6862;281802;-87
2022/01/06 02:43:23;;;;;;;5.03;2.53;;;5.40;52.50;;;;;;20455;6862;308487;-87
2022/01/06 02:45:47;;;;;;;5.57;2.80;;;5.70;51.90;;;;;;20406;6862;309231;-87
2022/01/06 02:48:14;;;;;;;3.67;2.40;;;6.00;51.40;;;;;;20460;6860;279248;-87
2022/01/06 02:50:38;;;;;;;5.00;2.30;;;6.10;51.10;;;;;;20672;6861;117125;-88
2022/01/06 02:53:03;;;;;;;4.62;2.60;;;6.00;51.20;;;;;;20455;6861;343222;-87
2022/01/06 02:55:30;;;;;;;4.65;2.40;;;5.80;51.50;;;;;;20652;6861;117079;-88
2022/01/06 02:57:55;;;;;;;4.30;2.40;;;5.80;51.60;;;;;;20486;6846;281361;-88
2022/01/06 03:00:21;;;;;;;4.97;2.40;;;5.80;51.30;;;;;;20504;6846;280141;-87
2022/01/06 03:02:46;;;;;;;3.63;2.37;;;6.10;51.60;;;;;;20718;6846;118114;-87
2022/01/06 03:05:15;;;;;;;4.57;2.47;;;5.90;50.90;;;;;;20712;6846;119863;-87
2022/01/06 03:07:41;;;;;;;4.00;2.20;;;5.60;51.50;;;;;;20474;6847;341883;-87
2022/01/06 03:10:10;;;;;;;4.80;2.40;;;5.90;51.20;;;;;;20488;6847;342469;-87
2022/01/06 03:12:39;;;;;;;3.10;2.17;;;5.90;51.20;;;;;;20697;6847;119511;-87
2022/01/06 03:14:58;;;;;;;6.37;2.47;;;5.80;51.30;;;;;;20695;6847;116691;-88
2022/01/06 03:17:24;;;;;;;3.58;2.62;;;5.50;51.80;;;;;;20495;6847;312923;-87
2022/01/06 03:19:50;;;;;;;3.40;2.42;;;5.60;52.50;;;;;;20484;6847;310301;-86
2022/01/06 03:22:15;;;;;;;2.55;2.30;;;5.80;51.40;;;;;;20528;6847;318059;-87
2022/01/06 03:24:42;;;;;;;2.37;2.13;;;6.10;50.90;;;;;;20736;6847;117458;-87
2022/01/06 03:27:08;;;;;;;2.90;2.50;;;5.90;50.90;;;;;;20513;6847;309072;-87
2022/01/06 03:29:33;;;;;;;5.47;2.50;;;5.90;51.00;;;;;;20514;6847;309059;-87
2022/01/06 03:31:59;;;;;;;5.50;2.53;;;6.10;50.80;;;;;;20725;6847;116923;-88
2022/01/06 03:34:24;;;;;;;4.28;2.60;;;6.00;51.00;;;;;;20495;6847;334688;-87
2022/01/06 03:36:51;;;;;;;3.13;2.37;;;6.10;50.80;;;;;;20505;6847;308305;-87
2022/01/06 03:39:16;;;;;;;3.47;1.97;;;6.10;50.70;;;;;;20726;6847;117416;-87
2022/01/06 03:41:42;;;;;;;5.28;2.10;;;6.00;51.60;;;;;;20703;6847;117920;-87
2022/01/06 03:44:08;;;;;;;3.92;2.40;;;5.50;52.20;;;;;;20718;6847;117573;-89
2022/01/06 03:46:34;;;;;;;5.03;2.30;;;5.40;52.10;;;;;;20702;6847;117325;-87
2022/01/06 03:48:59;;;;;;;2.57;2.37;;;5.20;52.60;;;;;;20509;6847;278975;-86
2022/01/06 03:51:25;;;;;;;3.27;2.50;;;5.30;52.50;;;;;;20506;6847;308957;-87
2022/01/06 03:53:51;;;;;;;4.83;2.47;;;5.70;52.00;;;;;;20486;6847;406003;-87
2022/01/06 03:56:16;;;;;;;4.43;2.23;;;5.90;51.30;;;;;;20715;6847;117266;-87
2022/01/06 03:58:42;;;;;;;5.18;2.55;;;5.90;52.00;;;;;;20494;6845;338302;-92
2022/01/06 04:01:08;;;;;;;2.97;2.37;;;5.90;51.40;;;;;;20499;6846;309906;-87
2022/01/06 04:03:33;;;;;;;4.07;2.27;;;6.10;50.90;;;;;;20696;6846;117853;-87
2022/01/06 04:05:59;;;;;;;4.27;2.33;;;6.00;51.00;;;;;;20502;6846;283610;-87
2022/01/06 04:08:24;;;;;;;3.55;2.20;;;6.00;51.20;;;;;;20504;6846;279614;-88
2022/01/06 04:10:50;;;;;;;3.50;2.27;;;6.20;50.60;;;;;;20711;6846;117826;-88
2022/01/06 04:13:15;;;;;;;2.62;2.10;;;6.00;50.80;;;;;;20485;6846;278701;-87
2022/01/06 04:15:43;;;;;;;1.93;1.73;;;6.10;50.70;;;;;;20695;6846;119466;-87
2022/01/06 04:18:07;;;;;;;3.53;1.85;;;5.70;51.60;;;;;;20706;6847;118012;-88
2022/01/06 04:20:33;;;;;;;3.20;2.30;;;5.70;51.60;;;;;;20498;6847;309121;-87
2022/01/06 04:22:58;;;;;;;2.77;2.30;;;5.70;51.60;;;;;;20714;6847;117966;-87
2022/01/06 04:25:24;;;;;;;3.62;2.40;;;5.70;51.70;;;;;;20507;6847;337377;-87
2022/01/06 04:27:50;;;;;;;7.30;2.03;;;5.80;51.60;;;;;;20698;6847;117430;-88
2022/01/06 04:30:15;;;;;;;2.43;2.00;;;5.80;51.70;;;;;;20718;6847;117475;-87
2022/01/06 04:32:41;;;;;;;4.03;2.37;;;5.50;52.10;;;;;;20504;6847;327095;-87
2022/01/06 04:35:06;;;;;;;2.00;1.90;;;5.60;52.50;;;;;;20698;6847;117181;-87
2022/01/06 04:37:32;;;;;;;3.75;2.12;;;5.60;52.60;;;;;;20474;6847;333504;-89
2022/01/06 04:39:58;;;;;;;3.25;2.12;;;5.70;52.60;;;;;;20717;6847;119521;-88
2022/01/06 04:42:24;;;;;;;4.60;1.93;;;5.70;52.60;;;;;;20707;6847;119259;-87
2022/01/06 04:44:51;;;;;;;1.80;1.70;;;5.50;52.90;;;;;;20714;6847;118476;-88
2022/01/06 04:47:17;;;;;;;1.90;1.70;;;5.10;53.80;;;;;;20710;6847;121712;-87
2022/01/06 04:49:43;;;;;;;2.33;2.10;;;5.20;53.80;;;;;;20693;6847;120313;-87
2022/01/06 04:52:09;;;;;;;3.57;1.70;;;4.90;54.30;;;;;;20698;6847;119063;-88
2022/01/06 04:54:34;;;;;;;2.20;2.00;;;4.90;54.30;;;;;;20500;6847;312490;-88
2022/01/06 04:57:00;;;;;;;2.72;1.98;;;5.10;54.40;;;;;;20503;6847;279671;-88
2022/01/06 04:59:26;;;;;;;2.30;1.95;;;5.50;53.90;;;;;;20708;6847;120249;-87
2022/01/06 05:01:51;;;;;;;2.50;2.30;;;5.50;53.60;;;;;;20468;6847;456580;-88
2022/01/06 05:04:17;;;;;;;2.30;2.10;;;5.70;53.50;;;;;;20499;6847;309119;-88
2022/01/06 05:06:42;;;;;;;2.13;2.03;;;5.90;53.00;;;;;;20503;6847;279516;-87
2022/01/06 05:09:09;;;;;;;2.50;1.83;;;6.10;52.60;;;;;;20721;6847;117877;-87
2022/01/06 05:11:34;;;;;;;2.33;2.00;;;6.10;52.60;;;;;;20702;6845;117248;-90
2022/01/06 05:14:00;;;;;;;2.10;2.00;;;5.80;53.10;;;;;;20493;6846;317063;-87
2022/01/06 05:16:25;;;;;;;2.90;2.13;;;5.80;53.30;;;;;;20506;6846;305200;-87
2022/01/06 05:18:51;;;;;;;2.20;2.00;;;6.00;53.00;;;;;;20720;6846;117333;-87
2022/01/06 05:21:16;;;;;;;2.23;2.13;;;5.90;52.90;;;;;;20493;6846;279868;-88
2022/01/06 05:23:42;;;;;;;2.50;2.30;;;5.90;53.00;;;;;;20487;6846;308715;-87
2022/01/06 05:26:08;;;;;;;2.00;1.90;;;6.10;52.80;;;;;;20720;6846;117296;-88
2022/01/06 05:28:33;;;;;;;2.33;2.13;;;6.00;52.80;;;;;;20503;6846;309495;-87
2022/01/06 05:30:59;;;;;;;2.10;1.90;;;5.90;53.00;;;;;;20582;6847;117321;-88
2022/01/06 05:33:24;;;;;;;2.50;2.20;;;5.80;53.20;;;;;;20478;6847;308834;-86
2022/01/06 05:35:50;;;;;;;2.70;2.50;;;5.90;53.40;;;;;;20472;6847;280287;-87
2022/01/06 05:38:16;;;;;;;2.40;2.20;;;6.30;52.60;;;;;;20487;6847;339198;-86
2022/01/06 05:40:42;;;;;;;1.90;1.80;;;6.30;52.50;;;;;;20701;6847;118570;-86
2022/01/06 05:43:08;;;;;;;2.10;1.70;;;5.80;53.80;;;;;;20708;6847;117551;-85
2022/01/06 05:45:34;;;;;;;2.10;1.77;;;5.80;53.20;;;;;;20479;6847;309559;-87
2022/01/06 05:47:59;;;;;;;2.10;1.90;;;5.80;53.60;;;;;;20497;6847;338287;-87
2022/01/06 05:50:28;;;;;;;2.00;1.90;;;6.00;53.10;;;;;;20501;6847;279109;-86
2022/01/06 05:52:54;;;;;;;2.10;2.00;;;5.90;53.30;;;;;;20712;6847;117288;-84
2022/01/06 05:55:23;;;;;;;2.22;2.12;;;5.90;52.70;;;;;;20502;6847;302833;-86
2022/01/06 05:57:50;;;;;;;2.03;1.92;;;6.00;52.80;;;;;;20491;6847;278273;-88
2022/01/06 06:00:17;;;;;;;2.07;1.97;;;6.00;52.80;;;;;;20720;6847;116578;-86
2022/01/06 06:02:42;;;;;;;2.10;2.00;;;5.80;52.90;;;;;;20500;6847;308687;-92
2022/01/06 06:05:09;;;;;;;2.13;2.03;;;5.80;53.30;;;;;;20507;6847;302780;-88
2022/01/06 06:07:35;;;;;;;1.73;1.70;;;5.90;52.90;;;;;;20690;6847;117645;-90
2022/01/06 06:10:00;;;;;;;2.30;2.10;;;5.70;53.00;;;;;;20569;6847;312823;-85
2022/01/06 06:12:48;;;;;;;1.90;1.80;;;5.70;53.30;;;;;;20794;6847;116507;-86
2022/01/06 06:15:21;;;;;;;1.70;1.70;;;5.60;53.50;;;;;;20983;6730;67575;-86
2022/01/06 06:17:59;;;;;;;1.80;1.70;;;5.20;54.10;;;;;;20922;6786;123456;-86
2022/01/06 06:20:34;;;;;;;1.80;1.70;;;5.00;54.70;;;;;;20896;6730;117322;-86
2022/01/06 06:23:11;;;;;;;2.17;2.08;;;4.80;55.20;;;;;;20631;6730;338457;-86
2022/01/06 06:25:46;;;;;;;1.77;1.67;;;4.90;55.30;;;;;;20903;6729;116866;-86
2022/01/06 06:28:22;;;;;;;2.43;1.90;;;5.00;55.20;;;;;;20945;6730;117182;-86
2022/01/06 06:30:58;;;;;;;2.20;2.10;;;4.80;55.40;;;;;;20720;6730;306092;-86
2022/01/06 06:33:33;;;;;;;2.00;1.90;;;5.00;55.40;;;;;;20578;6730;340831;-86
2022/01/06 06:36:09;;;;;;;1.97;1.87;;;5.30;54.60;;;;;;20946;6730;116914;-86
2022/01/06 06:38:44;;;;;;;2.10;2.00;;;5.30;54.40;;;;;;20729;6730;339880;-86
2022/01/06 06:41:20;;;;;;;2.20;2.10;;;5.40;54.50;;;;;;20952;6730;117345;-86
2022/01/06 06:43:55;;;;;;;1.90;1.87;;;5.30;54.50;;;;;;20781;6730;117839;-87
2022/01/06 06:46:31;;;;;;;1.80;1.70;;;5.00;54.90;;;;;;20954;6730;116820;-85
2022/01/06 06:49:07;;;;;;;2.10;2.00;;;4.90;55.50;;;;;;20744;6730;284352;-86
2022/01/06 06:51:45;;;;;;;2.33;2.23;;;5.40;54.70;;;;;;20718;6730;276273;-86
2022/01/06 06:54:20;;;;;;;1.70;1.70;;;5.30;54.60;;;;;;20777;6730;117340;-86
2022/01/06 06:56:56;;;;;;;1.67;1.67;;;5.30;54.40;;;;;;21004;6730;115862;-86
2022/01/06 06:59:31;;;;;;;2.13;1.70;;;5.10;54.90;;;;;;20977;6730;116049;-86
2022/01/06 07:02:08;;;;;;;2.00;1.90;;;4.90;55.50;;;;;;20988;6730;117346;-87
2022/01/06 07:04:44;;;;;;;1.87;1.50;;;4.70;55.90;;;;;;20955;6730;117438;-86
2022/01/06 07:07:19;;;;;;;2.20;2.10;;;4.60;56.30;;;;;;20735;6730;335036;-85
2022/01/06 07:09:55;;;;;;;1.80;1.70;;;4.80;56.20;;;;;;20911;6730;117206;-85
2022/01/06 07:12:31;;;;;;;1.73;1.63;;;4.90;55.90;;;;;;20910;6730;116889;-86
2022/01/06 07:15:09;;;;;;;2.20;2.10;;;4.80;56.10;;;;;;20945;6730;117757;-86
2022/01/06 07:17:45;;;;;;;2.20;2.00;;;4.60;56.40;;;;;;20712;6730;305636;-86
2022/01/06 07:20:20;;;;;;;1.90;1.80;;;4.90;56.10;;;;;;20949;6730;116791;-87
2022/01/06 07:22:56;;;;;;;1.60;1.60;;;4.90;55.80;;;;;;20880;6730;116901;-86
2022/01/06 07:25:32;;;;;;;1.40;1.40;;;4.70;56.40;;;;;;20944;6730;118604;-87
2022/01/06 07:28:09;;;;;;;1.98;1.87;;;4.70;56.40;;;;;;20719;6730;335095;-89
2022/01/06 07:30:46;;;;;;;2.07;1.97;;;4.90;56.00;;;;;;20931;6730;117520;-85
2022/01/06 07:33:23;;;;;;;2.07;1.97;;;5.20;55.30;;;;;;20567;6730;309070;-92
2022/01/06 07:38:38;;;;;;;1.90;1.80;;;5.80;53.60;;;;;;20157;6839;312644;-86
2022/01/06 07:41:53;;;;;;;2.00;1.90;;;5.80;53.60;;;;;;20631;6778;311376;-89
2022/01/06 07:44:49;;;;;;;;;;;;;;;;;;;;;
2022/01/06 07:47:15;;;;;;;2.00;1.80;;;5.80;53.30;;;;;;20700;6746;278147;-88
2022/01/06 07:49:51;;;;;;;2.20;2.00;;;6.00;53.00;;;;;;20600;6752;308482;-87
2022/01/06 07:52:27;;;;;;;1.85;1.75;;;5.90;52.90;;;;;;20590;6759;309712;-87
2022/01/06 07:55:02;;;;;;;2.20;2.10;;;6.10;52.50;;;;;;20797;6765;117074;-87
2022/01/06 08:00:50;;;;;;;1.60;1.50;;;5.90;52.80;;;;;;19543;7131;117745;-88
2022/01/06 08:03:26;;;;;;;1.90;1.80;;;5.60;53.20;;;;;;20274;6823;343050;-86
2022/01/06 08:06:02;;;;;;;2.55;2.42;;;5.70;53.50;;;;;;20444;6775;320181;-87
2022/01/06 08:08:41;;;;;;;1.77;1.67;;;5.70;53.20;;;;;;20812;6760;118779;-88
2022/01/06 08:11:14;;;;;;;2.03;1.93;;;5.70;53.00;;;;;;20746;6764;119123;-88
2022/01/06 08:14:00;;;;;;;;;;;;;;;;;;;;;
2022/01/06 08:16:29;;;;;;;4.33;4.13;;;5.20;54.20;;;;;;20781;6767;116753;-95
2022/01/06 08:19:02;;;;;;;2.00;1.90;;;5.00;54.70;;;;;;20563;6770;307151;-88
2022/01/06 08:21:37;;;;;;;1.73;1.63;;;5.20;54.70;;;;;;20538;6778;127231;-90
2022/01/06 08:24:16;;;;;;;1.67;1.57;;;5.20;54.50;;;;;;20638;6774;122088;-90
2022/01/06 08:27:03;;;;;;;1.97;1.87;;;5.00;54.70;;;;;;20730;6767;118892;-91
2022/01/06 08:29:28;;;;;;;1.90;1.80;;;4.80;55.20;;;;;;20705;6787;125087;-91
2022/01/06 08:32:03;;;;;;;1.67;1.60;;;4.70;55.70;;;;;;20718;6842;117795;-90
2022/01/06 08:34:39;;;;;;;10.33;9.27;;;4.70;56.10;;;;;;20698;6780;117170;-88
2022/01/06 08:37:15;;;;;;;3.60;3.40;;;4.90;56.10;;;;;;20503;6775;308774;-89
2022/01/06 08:40:03;;;;;;;5.85;5.35;;;4.80;56.00;;;;;;20479;6796;308450;-92
2022/01/06 08:42:27;;;;;;;3.37;3.10;;;5.30;55.20;;;;;;20694;6793;117196;-88
2022/01/06 08:45:04;;;;;;;5.80;5.40;;;5.30;54.90;;;;;;20479;6789;336367;-89
2022/01/06 08:47:39;;;;;;;7.87;7.27;;;5.50;54.60;;;;;;20525;6768;283505;-89
2022/01/06 08:50:15;;;;;;;6.70;6.30;;;5.70;53.60;;;;;;20493;6792;279347;-89
2022/01/06 08:52:51;;;;;;;2.97;2.83;;;5.90;53.30;;;;;;20428;6809;283377;-89
2022/01/06 08:55:36;;;;;;;2.47;2.37;;;6.10;52.40;;;;;;20564;6765;308565;-90
2022/01/06 08:58:02;;;;;;;2.20;2.10;;;6.30;52.50;;;;;;20688;6803;117128;-88
2022/01/06 09:00:39;;;;;;;2.20;2.10;;;6.20;53.10;;;;;;20540;6779;278416;-90
2022/01/06 09:03:13;;;;;;;2.30;2.20;;;6.30;53.00;;;;;;20633;6777;117659;-89
2022/01/06 09:05:57;;;;;;;2.20;2.10;;;6.30;53.40;;;;;;20579;6763;308026;-88
2022/01/06 09:08:24;;;;;;;2.00;1.90;;;6.50;53.10;;;;;;20592;6763;337792;-88
2022/01/06 09:10:59;;;;;;;2.20;2.10;;;6.90;52.30;;;;;;20584;6763;307408;-89
2022/01/06 09:13:45;;;;;;;;;;;;;;;;;;;;;
2022/01/06 09:16:14;;;;;;;3.53;3.33;;;7.50;50.80;;;;;;20804;6765;120623;-89
2022/01/06 09:19:00;;;;;;;;;;;;;;;;;;;;;
2022/01/06 09:21:26;;;;;;;3.23;2.50;;;7.00;52.50;;;;;;20704;6795;121970;-96
2022/01/06 09:24:28;;;;;;;;;;;;;;;;;;;;;
2022/01/06 09:26:40;;;;;;;2.25;2.15;;;7.10;51.60;;;;;;20467;6825;283152;-91
2022/01/06 09:29:16;;;;;;;3.23;3.03;;;7.50;51.20;;;;;;20771;6774;117243;-89
2022/01/06 09:31:53;;;;;;;3.67;3.47;;;7.60;51.20;;;;;;20436;6793;316608;-86
2022/01/06 09:34:29;;;;;;;5.73;5.33;;;7.60;49.80;;;;;;20401;6824;309728;-86
2022/01/06 09:37:05;;;;;;;9.03;8.23;;;7.80;49.50;;;;;;20769;6768;117091;-85
2022/01/06 09:39:41;;;;;;;3.00;2.80;;;7.70;49.90;;;;;;20554;6768;308259;-81
2022/01/06 09:42:45;;;;;;;;;;;;;;;;;;;;;
2022/01/06 09:45:08;;;;;;;2.50;2.40;;;7.40;49.90;;;;;;20541;6810;338172;-85
2022/01/06 09:47:51;;;;;;;;;;;;;;;;;;;;;
2022/01/06 09:50:16;;;;;;;4.97;3.60;;;7.50;50.60;;;;;;20847;6753;117578;-84
2022/01/06 09:52:53;;;;;;;6.43;5.57;;;7.40;51.40;;;;;;20790;6753;118479;-89
2022/01/06 09:55:29;;;;;;;9.70;7.70;;;7.30;51.70;;;;;;20567;6810;307192;-86
2022/01/06 09:58:05;;;;;;;3.67;3.37;;;7.50;50.70;;;;;;20711;6784;117324;-86
2022/01/06 10:00:47;;;;;;;4.77;4.37;;;7.50;50.80;;;;;;20613;6753;279885;-86
2022/01/06 10:03:17;;;;;;;3.43;3.23;;;7.60;50.10;;;;;;20491;6768;280225;-87
2022/01/06 10:05:53;;;;;;;3.30;3.10;;;7.90;50.10;;;;;;20643;6847;117150;-86
2022/01/06 10:08:28;;;;;;;2.80;2.60;;;8.00;50.60;;;;;;20548;6780;281124;-86
2022/01/06 10:11:10;;;;;;;3.10;2.60;;;8.10;50.00;;;;;;20522;6788;278902;-86
2022/01/06 10:13:46;;;;;;;2.57;2.30;;;8.40;49.10;;;;;;20618;6788;117488;-85
2022/01/06 10:16:22;;;;;;;2.92;2.72;;;8.40;49.60;;;;;;20585;6766;317015;-86
2022/01/06 10:18:57;;;;;;;2.60;2.40;;;8.40;49.10;;;;;;20610;6760;306118;-85
2022/01/06 10:21:42;;;;;;;3.27;2.60;;;8.70;48.70;;;;;;20541;6780;278260;-86
2022/01/06 10:24:19;;;;;;;2.93;2.73;;;8.90;47.60;;;;;;20382;6780;301214;-84
2022/01/06 10:26:54;;;;;;;2.63;2.43;;;8.90;46.90;;;;;;20819;6757;119426;-86
2022/01/06 10:29:29;;;;;;;2.30;2.10;;;8.70;47.80;;;;;;20824;6756;118522;-88
2022/01/06 10:32:09;;;;;;;2.50;2.30;;;8.20;48.20;;;;;;20540;6771;339890;-87
2022/01/06 10:34:52;;;;;;;4.87;2.27;;;8.20;48.20;;;;;;20836;6751;117914;-85
2022/01/06 10:37:30;;;;;;;2.27;2.10;;;8.00;49.00;;;;;;20848;6751;117411;-88
2022/01/06 10:40:13;;;;;;;3.22;2.58;;;7.70;49.60;;;;;;20627;6751;337019;-87
2022/01/06 10:42:50;;;;;;;3.07;2.60;;;7.70;49.50;;;;;;20781;6751;119841;-87
2022/01/06 10:45:26;;;;;;;3.23;2.77;;;7.60;49.90;;;;;;20821;6756;116916;-87
2022/01/06 10:48:01;;;;;;;2.77;2.57;;;7.30;50.50;;;;;;20758;6770;122647;-87
2022/01/06 10:50:38;;;;;;;3.10;2.80;;;7.20;50.70;;;;;;20568;6771;279288;-87
2022/01/06 10:53:28;;;;;;;2.63;2.43;;;7.20;50.60;;;;;;20701;6763;117048;-87
2022/01/06 10:55:49;;;;;;;3.13;2.30;;;7.10;50.80;;;;;;20679;6778;117213;-84
2022/01/06 10:58:25;;;;;;;4.07;2.57;;;6.90;51.30;;;;;;20775;6786;117983;-85
2022/01/06 11:01:01;;;;;;;5.30;3.00;;;7.00;51.60;;;;;;20602;6771;308049;-84
2022/01/06 11:03:36;;;;;;;3.95;2.97;;;7.00;51.60;;;;;;20402;6788;298405;-85
2022/01/06 11:06:12;;;;;;;3.35;3.05;;;7.40;51.10;;;;;;20489;6794;308095;-85
2022/01/06 11:08:51;;;;;;;3.60;2.63;;;7.80;50.70;;;;;;20832;6750;117017;-86
2022/01/06 11:11:43;;;;;;;5.47;2.60;;;7.90;51.30;;;;;;20844;6750;119767;-86
2022/01/06 11:14:06;;;;;;;3.07;2.80;;;7.90;51.80;;;;;;20463;6806;309027;-88
2022/01/06 11:16:44;;;;;;;3.10;2.80;;;8.40;51.30;;;;;;20835;6752;117349;-88
2022/01/06 11:19:24;;;;;;;3.70;2.80;;;8.40;51.30;;;;;;20837;6750;117028;-89
2022/01/06 11:22:00;;;;;;;3.37;2.80;;;8.40;51.60;;;;;;20724;6750;119572;-89
2022/01/06 11:24:35;;;;;;;3.33;2.50;;;8.40;51.80;;;;;;20516;6813;121675;-87
2022/01/06 11:27:11;;;;;;;2.60;2.40;;;8.20;51.90;;;;;;20748;6780;119336;-88
2022/01/06 11:29:57;;;;;;;;;;;;;;;;;;;;;
2022/01/06 11:32:22;;;;;;;3.00;2.70;;;8.20;52.20;;;;;;20545;6768;335881;-87
2022/01/06 11:35:05;;;;;;;3.60;2.47;;;8.40;50.50;;;;;;20771;6768;118027;-85
2022/01/06 11:37:47;;;;;;;2.87;2.13;;;8.50;50.80;;;;;;20739;6783;120822;-86
2022/01/06 11:40:29;;;;;;;2.73;2.03;;;8.40;51.10;;;;;;20720;6793;117657;-87
2022/01/06 11:43:05;;;;;;;4.85;2.72;;;8.50;48.00;;;;;;20416;6796;315190;-83
2022/01/06 11:45:40;;;;;;;3.43;2.60;;;8.40;47.90;;;;;;20618;6768;281424;-88
2022/01/06 11:48:21;;;;;;;4.57;2.90;;;8.80;47.20;;;;;;20626;6751;305954;-91
2022/01/06 11:51:07;;;;;;;;;;;;;;;;;;;;;
2022/01/06 11:53:33;;;;;;;5.47;2.53;;;8.90;47.80;;;;;;20731;6751;120752;-89
2022/01/06 11:56:11;;;;;;;3.97;3.20;;;8.60;48.40;;;;;;20602;6759;307680;-87
2022/01/06 11:59:00;;;;;;;4.65;3.00;;;8.60;46.90;;;;;;20489;6848;288863;-87
2022/01/06 12:01:49;;;;;;;4.72;2.87;;;8.80;46.40;;;;;;20516;6783;342513;-89
2022/01/06 12:04:25;;;;;;;5.50;2.70;;;9.00;45.30;;;;;;20391;6780;310808;-83
2022/01/06 12:07:07;;;;;;;3.72;2.70;;;9.10;44.20;;;;;;20464;6825;313735;-85
2022/01/06 12:10:06;;;;;;;;;;;;;;;;;;;;;
2022/01/06 12:12:35;;;;;;;5.85;3.80;;;8.80;44.70;;;;;;20520;6834;315226;-86
2022/01/06 12:15:14;;;;;;;8.30;5.23;;;8.70;44.30;;;;;;20867;6753;116962;-85
2022/01/06 12:17:52;;;;;;;3.90;3.10;;;8.40;45.20;;;;;;20794;6768;118153;-84
2022/01/06 12:20:28;;;;;;;4.00;3.10;;;8.10;46.40;;;;;;20776;6778;117074;-85
2022/01/06 12:23:15;;;;;;;7.40;2.53;;;7.80;47.30;;;;;;20645;6785;117290;-85
2022/01/06 12:25:41;;;;;;;5.27;2.80;;;7.60;47.80;;;;;;20529;6762;280259;-85
2022/01/06 12:31:36;;;;;;;5.20;3.20;;;8.10;46.30;;;;;;21022;6516;99354;-86
2022/01/06 12:34:03;;;;;;;7.13;3.23;;;7.90;46.90;;;;;;20895;6807;116321;-89
2022/01/06 12:36:27;;;;;;;6.70;2.47;;;7.70;47.70;;;;;;20866;6807;117553;-88
2022/01/06 12:38:53;;;;;;;5.60;3.10;;;7.50;48.30;;;;;;20860;6802;115996;-86
2022/01/06 12:41:39;;;;;;;6.95;2.70;;;7.40;48.70;;;;;;20530;6858;333098;-87
2022/01/06 12:44:08;;;;;;;6.10;3.60;;;7.60;47.90;;;;;;20757;6867;117456;-87
2022/01/06 12:46:33;;;;;;;5.83;2.90;;;7.70;48.00;;;;;;20692;6870;116213;-86
2022/01/06 12:48:59;;;;;;;5.53;3.17;;;7.50;48.20;;;;;;20420;6870;309738;-86
2022/01/06 12:51:28;;;;;;;8.00;3.30;;;7.60;47.00;;;;;;20682;6869;117235;-91
2022/01/06 12:54:04;;;;;;;5.40;3.10;;;7.70;46.40;;;;;;20405;6877;314023;-90
2022/01/06 12:56:36;;;;;;;5.40;2.92;;;7.70;46.40;;;;;;20430;6863;278305;-86
2022/01/06 12:59:02;;;;;;;7.20;2.90;;;8.00;45.90;;;;;;20469;6863;279870;-86
2022/01/06 13:01:28;;;;;;;5.00;2.65;;;8.20;45.10;;;;;;20599;6893;116959;-93
2022/01/06 13:03:56;;;;;;;6.13;2.73;;;8.10;45.70;;;;;;20470;6873;308964;-87
2022/01/06 13:06:22;;;;;;;4.73;2.47;;;8.10;45.10;;;;;;20687;6873;117926;-86
2022/01/06 13:08:49;;;;;;;5.83;2.40;;;8.00;45.70;;;;;;20657;6873;117552;-86
2022/01/06 13:11:13;;;;;;;5.60;2.60;;;7.80;46.30;;;;;;20425;6873;309670;-87
2022/01/06 13:13:44;;;;;;;5.70;2.80;;;7.80;45.40;;;;;;20336;6892;309650;-90
2022/01/06 13:16:53;;;;;;;6.30;2.50;;;8.10;45.00;;;;;;20394;6877;280610;-90
2022/01/06 13:22:16;;;;;;;3.90;1.90;;;8.50;43.70;;;;;;20108;6882;118997;-85
2022/01/06 13:24:12;;;;;;;4.97;2.23;;;8.30;44.50;;;;;;20336;6865;119088;-84
2022/01/06 13:26:51;;;;;;;5.20;2.15;;;7.90;45.40;;;;;;20637;6865;117613;-86
2022/01/06 13:29:34;;;;;;;5.35;2.40;;;7.70;45.60;;;;;;20462;6863;279398;-88
2022/01/06 13:32:13;;;;;;;6.47;2.60;;;7.70;45.90;;;;;;20423;6880;284215;-84
2022/01/06 13:34:42;;;;;;;4.60;2.20;;;8.10;45.10;;;;;;20629;6878;117869;-86
2022/01/06 13:37:10;;;;;;;5.13;2.40;;;8.00;45.70;;;;;;20473;6863;295258;-83
2022/01/06 13:39:38;;;;;;;4.77;2.60;;;8.10;45.70;;;;;;20479;6862;290727;-85